createdAt,value
2018-10-09T00:00:17.700Z,0.00
2018-10-09T00:01:17.669Z,0.00
2018-10-09T00:02:17.640Z,0.00
2018-10-09T00:03:17.609Z,0.00
2018-10-09T00:04:17.580Z,0.00
2018-10-09T00:05:17.552Z,0.00
2018-10-09T00:06:17.521Z,0.00
2018-10-09T00:07:17.489Z,0.00
2018-10-09T00:08:17.461Z,0.00
2018-10-09T00:09:17.432Z,0.00
2018-10-09T00:10:17.402Z,0.00
2018-10-09T00:11:17.372Z,0.00
2018-10-09T00:12:17.342Z,0.00
2018-10-09T00:13:17.311Z,0.00
2018-10-09T00:14:17.284Z,0.00
2018-10-09T00:15:17.251Z,0.00
2018-10-09T00:16:17.223Z,0.00
2018-10-09T00:17:17.193Z,0.00
2018-10-09T00:18:17.163Z,0.00
2018-10-09T00:19:17.134Z,0.00
2018-10-09T00:20:17.104Z,0.00
2018-10-09T00:21:17.074Z,0.00
2018-10-09T00:22:17.044Z,0.00
2018-10-09T00:23:17.014Z,0.00
2018-10-09T00:24:16.983Z,0.00
2018-10-09T00:25:16.955Z,0.00
2018-10-09T00:26:16.925Z,0.00
2018-10-09T00:27:16.893Z,0.00
2018-10-09T00:28:16.864Z,0.00
2018-10-09T00:29:16.835Z,0.00
2018-10-09T00:30:16.807Z,0.00
2018-10-09T00:31:16.777Z,0.00
2018-10-09T00:32:16.745Z,0.00
2018-10-09T00:33:16.716Z,0.00
2018-10-09T00:34:16.687Z,0.00
2018-10-09T00:35:16.654Z,0.00
2018-10-09T00:36:16.629Z,0.00
2018-10-09T00:37:16.596Z,0.00
2018-10-09T00:38:16.567Z,0.00
2018-10-09T00:39:16.535Z,0.00
2018-10-09T00:40:16.506Z,0.00
2018-10-09T00:41:16.477Z,0.00
2018-10-09T00:42:16.448Z,0.00
2018-10-09T00:43:16.415Z,0.00
2018-10-09T00:44:16.386Z,0.00
2018-10-09T00:45:16.362Z,0.00
2018-10-09T00:46:16.327Z,0.00
2018-10-09T00:47:16.297Z,0.00
2018-10-09T00:48:16.267Z,0.00
2018-10-09T00:49:16.237Z,0.00
2018-10-09T00:50:16.212Z,0.00
2018-10-09T00:51:16.182Z,0.00
2018-10-09T00:52:16.148Z,0.00
2018-10-09T00:53:16.138Z,0.00
2018-10-09T00:54:16.089Z,0.00
2018-10-09T00:55:16.058Z,0.00
2018-10-09T00:56:16.035Z,0.00
2018-10-09T00:57:16.004Z,0.00
2018-10-09T00:58:15.968Z,0.00
2018-10-09T00:59:15.937Z,0.00
2018-10-09T01:00:15.912Z,0.00
2018-10-09T01:01:15.879Z,0.00
2018-10-09T01:02:15.853Z,0.00
2018-10-09T01:03:15.818Z,0.00
2018-10-09T01:04:15.788Z,0.00
2018-10-09T01:05:15.758Z,0.00
2018-10-09T01:06:15.728Z,0.00
2018-10-09T01:07:15.698Z,0.00
2018-10-09T01:08:15.671Z,0.00
2018-10-09T01:09:15.717Z,0.00
2018-10-09T01:10:15.610Z,0.00
2018-10-09T01:11:15.577Z,0.00
2018-10-09T01:12:15.547Z,0.00
2018-10-09T01:13:15.521Z,0.00
2018-10-09T01:14:15.493Z,0.00
2018-10-09T01:15:15.459Z,0.00
2018-10-09T01:16:15.427Z,0.00
2018-10-09T01:17:15.399Z,0.00
2018-10-09T01:18:15.371Z,0.00
2018-10-09T01:19:15.338Z,0.00
2018-10-09T01:20:15.307Z,0.00
2018-10-09T01:21:15.278Z,0.00
2018-10-09T01:22:15.249Z,0.00
2018-10-09T01:23:15.217Z,0.00
2018-10-09T01:24:15.190Z,0.00
2018-10-09T01:25:15.157Z,0.00
2018-10-09T01:26:15.126Z,0.00
2018-10-09T01:27:15.098Z,0.00
2018-10-09T01:28:15.065Z,0.00
2018-10-09T01:29:15.034Z,0.00
2018-10-09T01:30:15.007Z,0.00
2018-10-09T01:31:14.975Z,0.00
2018-10-09T01:32:14.946Z,0.00
2018-10-09T01:33:14.916Z,0.00
2018-10-09T01:34:14.884Z,0.00
2018-10-09T01:35:14.855Z,0.00
2018-10-09T01:36:14.824Z,0.00
2018-10-09T01:37:14.794Z,0.00
2018-10-09T01:38:14.767Z,0.00
2018-10-09T01:39:14.733Z,0.00
2018-10-09T01:40:14.703Z,0.00
2018-10-09T01:41:14.673Z,0.00
2018-10-09T01:42:14.642Z,0.00
2018-10-09T01:43:14.611Z,0.00
2018-10-09T01:44:14.582Z,0.00
2018-10-09T01:45:14.556Z,0.00
2018-10-09T01:46:14.521Z,0.00
2018-10-09T01:47:14.492Z,0.00
2018-10-09T01:48:14.463Z,0.00
2018-10-09T01:49:14.430Z,0.00
2018-10-09T01:50:14.399Z,0.00
2018-10-09T01:51:14.369Z,0.00
2018-10-09T01:52:14.337Z,0.00
2018-10-09T01:53:14.309Z,0.00
2018-10-09T01:54:14.280Z,0.00
2018-10-09T01:55:14.258Z,0.00
2018-10-09T01:56:14.217Z,0.00
2018-10-09T01:57:14.187Z,0.00
2018-10-09T01:58:14.161Z,0.00
2018-10-09T01:59:14.126Z,0.00
2018-10-09T02:00:14.096Z,0.00
2018-10-09T02:01:14.065Z,0.00
2018-10-09T02:02:14.035Z,0.00
2018-10-09T02:03:14.008Z,0.00
2018-10-09T02:04:13.981Z,0.00
2018-10-09T02:05:13.944Z,0.00
2018-10-09T02:06:13.915Z,0.00
2018-10-09T02:07:13.884Z,0.00
2018-10-09T02:08:13.853Z,0.00
2018-10-09T02:09:13.823Z,0.00
2018-10-09T02:10:13.793Z,0.00
2018-10-09T02:11:13.763Z,0.00
2018-10-09T02:12:13.733Z,0.00
2018-10-09T02:13:13.702Z,0.00
2018-10-09T02:14:13.672Z,0.00
2018-10-09T02:15:13.642Z,0.00
2018-10-09T02:16:13.612Z,0.00
2018-10-09T02:17:13.581Z,0.00
2018-10-09T02:18:13.551Z,0.00
2018-10-09T02:19:13.521Z,0.00
2018-10-09T02:20:13.491Z,0.00
2018-10-09T02:21:13.459Z,0.00
2018-10-09T02:22:13.431Z,0.00
2018-10-09T02:23:13.400Z,0.00
2018-10-09T02:24:13.370Z,0.00
2018-10-09T02:25:13.340Z,0.00
2018-10-09T02:26:13.309Z,0.00
2018-10-09T02:27:13.278Z,0.00
2018-10-09T02:28:13.248Z,0.00
2018-10-09T02:29:13.219Z,0.00
2018-10-09T02:30:13.189Z,0.00
2018-10-09T02:31:13.157Z,0.00
2018-10-09T02:32:13.128Z,0.00
2018-10-09T02:33:13.096Z,0.00
2018-10-09T02:34:13.068Z,0.00
2018-10-09T02:35:13.038Z,0.00
2018-10-09T02:36:13.009Z,0.00
2018-10-09T02:37:12.977Z,0.00
2018-10-09T02:38:12.947Z,0.00
2018-10-09T02:39:12.918Z,0.00
2018-10-09T02:40:12.886Z,0.00
2018-10-09T02:41:12.858Z,0.00
2018-10-09T02:42:12.826Z,0.00
2018-10-09T02:43:12.794Z,0.00
2018-10-09T02:44:12.765Z,0.00
2018-10-09T02:45:12.736Z,0.00
2018-10-09T02:46:12.707Z,0.00
2018-10-09T02:47:12.675Z,0.00
2018-10-09T02:48:12.644Z,0.00
2018-10-09T02:49:12.624Z,0.00
2018-10-09T02:50:12.585Z,0.00
2018-10-09T02:51:12.558Z,0.00
2018-10-09T02:52:12.523Z,0.00
2018-10-09T02:53:12.494Z,0.00
2018-10-09T02:54:12.464Z,0.00
2018-10-09T02:55:12.432Z,0.00
2018-10-09T02:56:12.402Z,0.00
2018-10-09T02:57:12.372Z,0.00
2018-10-09T02:58:12.343Z,0.00
2018-10-09T02:59:12.312Z,0.00
2018-10-09T03:00:12.282Z,0.00
2018-10-09T03:01:12.252Z,0.00
2018-10-09T03:02:12.222Z,0.00
2018-10-09T03:03:12.190Z,0.00
2018-10-09T03:04:12.161Z,0.00
2018-10-09T03:05:12.131Z,0.00
2018-10-09T03:06:12.099Z,0.00
2018-10-09T03:07:12.069Z,0.00
2018-10-09T03:08:12.040Z,0.00
2018-10-09T03:09:12.010Z,0.00
2018-10-09T03:10:11.980Z,0.00
2018-10-09T03:11:11.952Z,0.00
2018-10-09T03:12:11.920Z,0.00
2018-10-09T03:13:11.890Z,0.00
2018-10-09T03:14:11.860Z,0.00
2018-10-09T03:15:11.830Z,0.00
2018-10-09T03:16:11.797Z,0.00
2018-10-09T03:17:11.767Z,0.00
2018-10-09T03:18:11.739Z,0.00
2018-10-09T03:19:11.708Z,0.00
2018-10-09T03:20:11.676Z,0.00
2018-10-09T03:21:11.648Z,0.00
2018-10-09T03:22:11.618Z,0.00
2018-10-09T03:23:11.585Z,0.00
2018-10-09T03:24:11.555Z,0.00
2018-10-09T03:25:11.536Z,0.00
2018-10-09T03:26:11.496Z,0.00
2018-10-09T03:27:11.465Z,0.00
2018-10-09T03:28:11.435Z,0.00
2018-10-09T03:29:11.404Z,0.00
2018-10-09T03:30:11.376Z,0.00
2018-10-09T03:31:11.350Z,0.00
2018-10-09T03:32:11.314Z,0.00
2018-10-09T03:33:11.283Z,0.00
2018-10-09T03:34:11.253Z,0.00
2018-10-09T03:35:11.226Z,0.00
2018-10-09T03:36:11.192Z,0.00
2018-10-09T03:37:11.162Z,0.00
2018-10-09T03:38:11.132Z,0.00
2018-10-09T03:39:11.101Z,0.00
2018-10-09T03:40:11.071Z,0.00
2018-10-09T03:41:11.039Z,0.00
2018-10-09T03:42:11.010Z,0.00
2018-10-09T03:43:10.980Z,0.00
2018-10-09T03:44:10.949Z,0.00
2018-10-09T03:45:10.920Z,0.00
2018-10-09T03:46:10.889Z,0.00
2018-10-09T03:47:10.858Z,0.00
2018-10-09T03:48:10.828Z,0.00
2018-10-09T03:49:10.798Z,0.00
2018-10-09T03:50:10.768Z,0.00
2018-10-09T03:51:10.736Z,0.00
2018-10-09T03:52:10.706Z,0.00
2018-10-09T03:53:10.676Z,0.00
2018-10-09T03:54:10.646Z,0.00
2018-10-09T03:55:10.617Z,0.00
2018-10-09T03:56:10.585Z,0.00
2018-10-09T03:57:10.554Z,0.00
2018-10-09T03:58:10.527Z,0.00
2018-10-09T03:59:10.491Z,0.00
2018-10-09T04:00:10.462Z,0.00
2018-10-09T04:01:10.431Z,0.00
2018-10-09T04:02:10.404Z,0.00
2018-10-09T04:03:10.369Z,0.00
2018-10-09T04:04:10.340Z,0.00
2018-10-09T04:05:10.311Z,0.00
2018-10-09T04:06:10.283Z,0.00
2018-10-09T04:07:10.248Z,0.00
2018-10-09T04:08:10.217Z,0.00
2018-10-09T04:09:10.259Z,0.00
2018-10-09T04:10:10.157Z,0.00
2018-10-09T04:11:10.126Z,0.00
2018-10-09T04:12:10.096Z,0.00
2018-10-09T04:13:10.065Z,0.00
2018-10-09T04:14:10.034Z,0.00
2018-10-09T04:15:10.001Z,0.00
2018-10-09T04:16:09.972Z,0.00
2018-10-09T04:17:09.942Z,0.00
2018-10-09T04:18:09.912Z,0.00
2018-10-09T04:19:09.884Z,0.00
2018-10-09T04:20:09.850Z,0.00
2018-10-09T04:21:09.820Z,0.00
2018-10-09T04:22:09.790Z,0.00
2018-10-09T04:23:09.757Z,0.00
2018-10-09T04:24:09.729Z,0.00
2018-10-09T04:25:09.696Z,0.00
2018-10-09T04:26:09.667Z,0.00
2018-10-09T04:27:09.636Z,0.00
2018-10-09T04:28:09.603Z,0.00
2018-10-09T04:29:09.574Z,0.00
2018-10-09T04:30:09.542Z,0.00
2018-10-09T04:31:09.514Z,0.00
2018-10-09T04:32:09.481Z,0.00
2018-10-09T04:33:09.450Z,0.00
2018-10-09T04:34:09.425Z,0.00
2018-10-09T04:35:09.394Z,0.00
2018-10-09T04:36:09.356Z,0.00
2018-10-09T04:37:09.328Z,0.00
2018-10-09T04:38:09.296Z,0.00
2018-10-09T04:39:09.264Z,0.00
2018-10-09T04:40:09.234Z,0.00
2018-10-09T04:41:09.204Z,0.00
2018-10-09T04:42:09.174Z,0.00
2018-10-09T04:43:09.142Z,0.00
2018-10-09T04:44:09.110Z,0.00
2018-10-09T04:45:09.082Z,0.00
2018-10-09T04:46:09.049Z,0.00
2018-10-09T04:47:09.017Z,0.00
2018-10-09T04:48:08.986Z,0.00
2018-10-09T04:49:08.956Z,0.00
2018-10-09T04:50:08.925Z,0.00
2018-10-09T04:51:08.894Z,0.00
2018-10-09T04:52:08.863Z,0.00
2018-10-09T04:53:08.906Z,0.00
2018-10-09T04:54:08.805Z,0.00
2018-10-09T04:55:08.771Z,0.00
2018-10-09T04:56:08.740Z,0.00
2018-10-09T04:57:08.707Z,0.00
2018-10-09T04:58:08.678Z,0.00
2018-10-09T04:59:08.646Z,0.00
2018-10-09T05:00:08.616Z,0.00
2018-10-09T05:01:08.589Z,0.00
2018-10-09T05:02:08.554Z,0.00
2018-10-09T05:03:08.522Z,0.00
2018-10-09T05:04:08.493Z,0.00
2018-10-09T05:05:08.463Z,0.00
2018-10-09T05:06:08.433Z,0.00
2018-10-09T05:07:08.399Z,0.00
2018-10-09T05:08:08.368Z,0.00
2018-10-09T05:09:08.339Z,0.00
2018-10-09T05:10:08.307Z,0.00
2018-10-09T05:11:08.278Z,0.00
2018-10-09T05:12:08.243Z,0.00
2018-10-09T05:13:08.214Z,0.00
2018-10-09T05:14:08.184Z,0.00
2018-10-09T05:15:08.152Z,0.00
2018-10-09T05:16:08.122Z,0.00
2018-10-09T05:17:08.091Z,0.00
2018-10-09T05:18:08.060Z,5.63
2018-10-09T05:19:08.033Z,5.63
2018-10-09T05:20:07.999Z,5.63
2018-10-09T05:21:07.966Z,5.63
2018-10-09T05:22:07.936Z,5.63
2018-10-09T05:23:07.927Z,5.63
2018-10-09T05:24:07.874Z,11.25
2018-10-09T05:25:07.843Z,11.25
2018-10-09T05:26:07.813Z,11.25
2018-10-09T05:27:07.781Z,11.25
2018-10-09T05:28:07.751Z,11.25
2018-10-09T05:29:07.719Z,16.88
2018-10-09T05:30:07.688Z,16.88
2018-10-09T05:31:07.757Z,16.88
2018-10-09T05:32:07.626Z,16.88
2018-10-09T05:33:07.595Z,22.50
2018-10-09T05:34:07.565Z,22.50
2018-10-09T05:35:07.538Z,28.13
2018-10-09T05:36:07.500Z,28.13
2018-10-09T05:37:07.471Z,33.75
2018-10-09T05:38:07.442Z,33.75
2018-10-09T05:39:07.409Z,39.38
2018-10-09T05:40:07.379Z,39.38
2018-10-09T05:41:07.348Z,45.00
2018-10-09T05:42:07.318Z,50.63
2018-10-09T05:43:07.285Z,50.63
2018-10-09T05:44:07.278Z,56.25
2018-10-09T05:45:07.224Z,56.25
2018-10-09T05:46:07.195Z,61.88
2018-10-09T05:47:07.160Z,67.50
2018-10-09T05:48:07.131Z,67.50
2018-10-09T05:49:07.101Z,73.13
2018-10-09T05:50:07.070Z,73.13
2018-10-09T05:51:07.038Z,73.13
2018-10-09T05:52:07.008Z,78.75
2018-10-09T05:53:06.977Z,84.38
2018-10-09T05:54:06.949Z,84.38
2018-10-09T05:55:06.914Z,90.00
2018-10-09T05:56:06.885Z,95.63
2018-10-09T05:57:06.853Z,95.63
2018-10-09T05:58:06.930Z,101.25
2018-10-09T05:59:06.792Z,101.25
2018-10-09T06:00:06.761Z,112.50
2018-10-09T06:01:06.731Z,112.50
2018-10-09T06:02:06.701Z,118.13
2018-10-09T06:03:06.668Z,123.75
2018-10-09T06:04:06.638Z,129.38
2018-10-09T06:05:06.608Z,129.38
2018-10-09T06:06:06.578Z,135.00
2018-10-09T06:07:06.547Z,135.00
2018-10-09T06:08:06.518Z,135.00
2018-10-09T06:09:06.486Z,140.63
2018-10-09T06:10:06.456Z,146.25
2018-10-09T06:11:06.425Z,146.25
2018-10-09T06:12:06.394Z,151.88
2018-10-09T06:13:06.365Z,151.88
2018-10-09T06:14:06.336Z,157.50
2018-10-09T06:15:06.303Z,157.50
2018-10-09T06:16:06.333Z,157.50
2018-10-09T06:17:06.243Z,157.50
2018-10-09T06:18:06.214Z,157.50
2018-10-09T06:19:06.182Z,163.13
2018-10-09T06:20:06.151Z,163.13
2018-10-09T06:21:06.121Z,174.38
2018-10-09T06:22:06.160Z,174.38
2018-10-09T06:23:06.061Z,174.38
2018-10-09T06:24:06.031Z,180.00
2018-10-09T06:25:06.001Z,185.63
2018-10-09T06:26:05.971Z,191.25
2018-10-09T06:27:05.940Z,202.50
2018-10-09T06:28:06.106Z,208.13
2018-10-09T06:29:05.881Z,213.75
2018-10-09T06:30:05.850Z,219.38
2018-10-09T06:31:05.820Z,219.38
2018-10-09T06:32:05.791Z,225.00
2018-10-09T06:33:05.761Z,230.63
2018-10-09T06:34:05.813Z,230.63
2018-10-09T06:35:05.704Z,230.63
2018-10-09T06:36:05.670Z,230.63
2018-10-09T06:37:05.710Z,230.63
2018-10-09T06:38:05.611Z,241.88
2018-10-09T06:39:05.581Z,236.25
2018-10-09T06:40:05.550Z,236.25
2018-10-09T06:41:05.522Z,241.88
2018-10-09T06:42:05.492Z,247.50
2018-10-09T06:43:05.461Z,253.13
2018-10-09T06:44:05.432Z,258.75
2018-10-09T06:45:05.405Z,264.38
2018-10-09T06:46:05.374Z,270.00
2018-10-09T06:47:05.342Z,281.25
2018-10-09T06:48:05.313Z,286.88
2018-10-09T06:49:05.283Z,292.50
2018-10-09T06:50:05.256Z,298.13
2018-10-09T06:51:05.224Z,309.38
2018-10-09T06:52:05.198Z,315.00
2018-10-09T06:53:05.165Z,320.63
2018-10-09T06:54:05.339Z,326.25
2018-10-09T06:55:05.106Z,331.88
2018-10-09T06:56:05.077Z,331.88
2018-10-09T06:57:05.048Z,343.13
2018-10-09T06:58:05.018Z,354.38
2018-10-09T06:59:04.988Z,360.00
2018-10-09T07:00:04.992Z,360.00
2018-10-09T07:01:04.933Z,360.00
2018-10-09T07:02:04.902Z,365.63
2018-10-09T07:03:04.876Z,376.88
2018-10-09T07:04:04.844Z,382.50
2018-10-09T07:05:04.815Z,388.13
2018-10-09T07:06:04.787Z,393.75
2018-10-09T07:07:04.756Z,399.38
2018-10-09T07:08:04.730Z,410.63
2018-10-09T07:09:04.698Z,421.88
2018-10-09T07:10:04.671Z,421.88
2018-10-09T07:11:04.663Z,438.75
2018-10-09T07:12:04.615Z,444.38
2018-10-09T07:13:04.585Z,450.00
2018-10-09T07:14:04.557Z,455.63
2018-10-09T07:15:04.527Z,466.88
2018-10-09T07:16:04.501Z,466.88
2018-10-09T07:17:04.522Z,478.13
2018-10-09T07:18:04.442Z,466.88
2018-10-09T07:19:04.415Z,489.38
2018-10-09T07:20:04.386Z,489.38
2018-10-09T07:21:04.357Z,472.50
2018-10-09T07:22:04.330Z,466.88
2018-10-09T07:23:04.301Z,466.88
2018-10-09T07:24:04.273Z,478.13
2018-10-09T07:25:04.251Z,511.88
2018-10-09T07:26:04.220Z,523.13
2018-10-09T07:27:04.191Z,528.75
2018-10-09T07:28:04.169Z,545.63
2018-10-09T07:29:04.135Z,562.50
2018-10-09T07:30:04.107Z,534.38
2018-10-09T07:31:04.080Z,483.75
2018-10-09T07:32:04.054Z,472.50
2018-10-09T07:33:04.027Z,478.13
2018-10-09T07:34:04.000Z,466.88
2018-10-09T07:35:03.972Z,461.25
2018-10-09T07:36:03.944Z,489.38
2018-10-09T07:37:03.919Z,506.25
2018-10-09T07:38:03.895Z,517.50
2018-10-09T07:39:03.864Z,540.00
2018-10-09T07:40:03.839Z,534.38
2018-10-09T07:41:03.813Z,551.25
2018-10-09T07:42:03.785Z,528.75
2018-10-09T07:43:03.758Z,506.25
2018-10-09T07:44:03.820Z,517.50
2018-10-09T07:45:03.707Z,528.75
2018-10-09T07:46:03.681Z,545.63
2018-10-09T07:47:03.651Z,540.00
2018-10-09T07:48:03.629Z,568.13
2018-10-09T07:49:03.601Z,618.75
2018-10-09T07:50:03.575Z,646.88
2018-10-09T07:51:03.549Z,697.50
2018-10-09T07:52:03.522Z,736.88
2018-10-09T07:53:03.498Z,759.38
2018-10-09T07:54:03.471Z,742.50
2018-10-09T07:55:03.445Z,798.75
2018-10-09T07:56:03.421Z,793.13
2018-10-09T07:57:03.394Z,810.00
2018-10-09T07:58:03.385Z,793.13
2018-10-09T07:59:03.343Z,714.38
2018-10-09T08:00:03.325Z,691.88
2018-10-09T08:01:03.293Z,821.25
2018-10-09T08:02:03.269Z,815.63
2018-10-09T08:03:03.243Z,675.00
2018-10-09T08:04:03.218Z,708.75
2018-10-09T08:05:03.195Z,849.38
2018-10-09T08:06:03.169Z,753.75
2018-10-09T08:07:03.146Z,748.13
2018-10-09T08:08:03.121Z,950.63
2018-10-09T08:09:03.096Z,939.38
2018-10-09T08:10:03.073Z,877.50
2018-10-09T08:11:03.049Z,945.00
2018-10-09T08:12:03.026Z,978.75
2018-10-09T08:13:03.003Z,1001.25
2018-10-09T08:14:02.980Z,1029.38
2018-10-09T08:15:02.959Z,1040.63
2018-10-09T08:16:02.932Z,821.25
2018-10-09T08:17:02.912Z,669.38
2018-10-09T08:18:02.889Z,658.13
2018-10-09T08:19:02.863Z,607.50
2018-10-09T08:20:02.843Z,810.00
2018-10-09T08:21:02.820Z,905.63
2018-10-09T08:22:02.798Z,821.25
2018-10-09T08:23:02.774Z,849.38
2018-10-09T08:24:02.751Z,1141.88
2018-10-09T08:25:02.731Z,1113.75
2018-10-09T08:26:02.707Z,1057.50
2018-10-09T08:27:02.683Z,1063.13
2018-10-09T08:28:02.746Z,1125.00
2018-10-09T08:29:02.640Z,1220.63
2018-10-09T08:30:02.617Z,1243.13
2018-10-09T08:31:02.593Z,1254.38
2018-10-09T08:32:02.613Z,1260.00
2018-10-09T08:33:02.551Z,1265.63
2018-10-09T08:34:02.528Z,1271.25
2018-10-09T08:35:02.507Z,1243.13
2018-10-09T08:36:02.486Z,1220.63
2018-10-09T08:37:02.464Z,1220.63
2018-10-09T08:38:02.445Z,1220.63
2018-10-09T08:39:02.421Z,1113.75
2018-10-09T08:40:02.405Z,1181.25
2018-10-09T08:41:02.381Z,1175.63
2018-10-09T08:42:02.359Z,1181.25
2018-10-09T08:43:02.337Z,1091.25
2018-10-09T08:44:02.316Z,843.75
2018-10-09T08:45:02.296Z,708.75
2018-10-09T08:46:02.289Z,742.50
2018-10-09T08:47:02.253Z,703.13
2018-10-09T08:48:02.231Z,770.63
2018-10-09T08:49:02.213Z,871.88
2018-10-09T08:50:02.193Z,1063.13
2018-10-09T08:51:02.169Z,1338.75
2018-10-09T08:52:02.250Z,1417.50
2018-10-09T08:53:02.129Z,1417.50
2018-10-09T08:54:02.107Z,1423.13
2018-10-09T08:55:02.086Z,1423.13
2018-10-09T08:56:02.064Z,1395.00
2018-10-09T08:57:02.045Z,1215.00
2018-10-09T08:58:02.023Z,1074.38
2018-10-09T08:59:02.029Z,1085.63
2018-10-09T09:00:01.985Z,1260.00
2018-10-09T09:01:01.966Z,1327.50
2018-10-09T09:02:01.945Z,1293.75
2018-10-09T09:03:01.920Z,1299.38
2018-10-09T09:04:01.900Z,1406.25
2018-10-09T09:05:01.882Z,1434.38
2018-10-09T09:06:01.860Z,1372.50
2018-10-09T09:07:01.839Z,1260.00
2018-10-09T09:08:01.829Z,1321.88
2018-10-09T09:09:01.803Z,1496.25
2018-10-09T09:10:01.782Z,1440.00
2018-10-09T09:11:01.762Z,1254.38
2018-10-09T09:12:01.744Z,1423.13
2018-10-09T09:13:01.723Z,1546.88
2018-10-09T09:14:01.771Z,1597.50
2018-10-09T09:15:01.684Z,1586.25
2018-10-09T09:16:01.664Z,1546.88
2018-10-09T09:17:01.646Z,1563.75
2018-10-09T09:18:01.627Z,1569.38
2018-10-09T09:19:01.607Z,1456.88
2018-10-09T09:20:01.588Z,1046.25
2018-10-09T09:21:01.682Z,1001.25
2018-10-09T09:22:01.554Z,1136.25
2018-10-09T09:23:01.531Z,1147.50
2018-10-09T09:24:01.514Z,1153.13
2018-10-09T09:25:01.496Z,1220.63
2018-10-09T09:26:01.486Z,1496.25
2018-10-09T09:27:01.472Z,1372.50
2018-10-09T09:28:01.441Z,1524.38
2018-10-09T09:29:01.420Z,1591.88
2018-10-09T09:30:01.404Z,1800.00
2018-10-09T09:31:01.382Z,1850.63
2018-10-09T09:32:01.362Z,1653.75
2018-10-09T09:33:01.348Z,1743.75
2018-10-09T09:34:01.328Z,1485.00
2018-10-09T09:35:01.307Z,1355.63
2018-10-09T09:36:01.287Z,1265.63
2018-10-09T09:37:01.273Z,1237.50
2018-10-09T09:38:01.249Z,1096.88
2018-10-09T09:39:01.293Z,1051.88
2018-10-09T09:40:01.212Z,1141.88
2018-10-09T09:41:01.193Z,1057.50
2018-10-09T09:42:01.175Z,1040.63
2018-10-09T09:43:01.154Z,1108.13
2018-10-09T09:44:01.135Z,1215.00
2018-10-09T09:45:01.114Z,1046.25
2018-10-09T09:46:01.288Z,905.63
2018-10-09T09:47:01.075Z,973.13
2018-10-09T09:48:01.058Z,781.88
2018-10-09T09:49:01.036Z,748.13
2018-10-09T09:50:01.018Z,736.88
2018-10-09T09:51:00.998Z,787.50
2018-10-09T09:52:00.993Z,793.13
2018-10-09T09:53:00.961Z,826.88
2018-10-09T09:54:00.940Z,978.75
2018-10-09T09:55:00.917Z,1226.25
2018-10-09T09:56:00.898Z,1057.50
2018-10-09T09:57:00.879Z,1276.88
2018-10-09T09:58:01.022Z,1563.75
2018-10-09T09:59:00.942Z,1558.13
2018-10-09T10:00:00.818Z,1541.25
2018-10-09T10:01:00.800Z,1558.13
2018-10-09T10:02:00.776Z,1558.13
2018-10-09T10:03:00.758Z,1552.50
2018-10-09T10:04:00.738Z,1603.13
2018-10-09T10:05:00.719Z,1569.38
2018-10-09T10:06:00.699Z,1575.00
2018-10-09T10:07:00.682Z,1575.00
2018-10-09T10:08:00.660Z,1591.88
2018-10-09T10:09:00.641Z,1473.75
2018-10-09T10:10:00.622Z,1575.00
2018-10-09T10:11:00.603Z,1648.13
2018-10-09T10:12:00.584Z,1676.25
2018-10-09T10:13:00.564Z,1653.75
2018-10-09T10:14:00.544Z,1743.75
2018-10-09T10:15:00.525Z,1698.75
2018-10-09T10:16:00.512Z,1794.38
2018-10-09T10:17:00.485Z,1794.38
2018-10-09T10:18:00.470Z,1738.13
2018-10-09T10:19:00.452Z,1608.75
2018-10-09T10:20:00.431Z,1676.25
2018-10-09T10:21:00.414Z,1985.63
2018-10-09T10:22:00.392Z,1794.38
2018-10-09T10:23:00.424Z,1901.25
2018-10-09T10:24:00.355Z,1631.25
2018-10-09T10:25:00.336Z,2053.13
2018-10-09T10:26:00.317Z,1980.00
2018-10-09T10:27:00.297Z,2103.75
2018-10-09T10:28:00.278Z,2092.50
2018-10-09T10:29:00.324Z,2019.38
2018-10-09T10:30:00.242Z,1929.38
2018-10-09T10:31:00.222Z,1569.38
2018-10-09T10:32:00.208Z,1743.75
2018-10-09T10:33:00.187Z,1996.88
2018-10-09T10:34:00.169Z,1575.00
2018-10-09T10:35:00.149Z,1957.50
2018-10-09T10:36:00.130Z,2013.75
2018-10-09T10:37:00.112Z,2019.38
2018-10-09T10:38:00.094Z,1299.38
2018-10-09T10:39:00.077Z,1479.38
2018-10-09T10:40:00.057Z,1305.00
2018-10-09T10:41:00.040Z,1434.38
2018-10-09T10:42:00.090Z,1563.75
2018-10-09T10:43:00.003Z,1771.88
2018-10-09T10:43:59.983Z,1305.00
2018-10-09T10:44:59.966Z,1597.50
2018-10-09T10:45:59.948Z,1383.75
2018-10-09T10:46:59.932Z,1434.38
2018-10-09T10:47:59.911Z,1282.50
2018-10-09T10:48:59.911Z,1226.25
2018-10-09T10:49:59.875Z,1186.88
2018-10-09T10:50:59.855Z,1141.88
2018-10-09T10:51:59.838Z,1085.63
2018-10-09T10:52:59.817Z,1063.13
2018-10-09T10:53:59.801Z,1108.13
2018-10-09T10:54:59.829Z,1040.63
2018-10-09T10:55:59.761Z,1057.50
2018-10-09T10:56:59.743Z,1046.25
2018-10-09T10:57:59.723Z,1051.88
2018-10-09T10:58:59.704Z,990.00
2018-10-09T10:59:59.683Z,1001.25
2018-10-09T11:00:59.665Z,1018.13
2018-10-09T11:01:59.648Z,1006.88
2018-10-09T11:02:59.623Z,1018.13
2018-10-09T11:03:59.605Z,1040.63
2018-10-09T11:04:59.587Z,1051.88
2018-10-09T11:05:59.565Z,1085.63
2018-10-09T11:06:59.544Z,1141.88
2018-10-09T11:07:59.610Z,1125.00
2018-10-09T11:08:59.504Z,1260.00
2018-10-09T11:09:59.485Z,1243.13
2018-10-09T11:10:59.463Z,1186.88
2018-10-09T11:11:59.444Z,1260.00
2018-10-09T11:12:59.424Z,1215.00
2018-10-09T11:13:59.402Z,1220.63
2018-10-09T11:14:59.381Z,1389.38
2018-10-09T11:15:59.368Z,1383.75
2018-10-09T11:16:59.342Z,1400.63
2018-10-09T11:17:59.321Z,1355.63
2018-10-09T11:18:59.301Z,1406.25
2018-10-09T11:19:59.282Z,1316.25
2018-10-09T11:20:59.292Z,1501.88
2018-10-09T11:21:59.241Z,1248.75
2018-10-09T11:22:59.221Z,1164.38
2018-10-09T11:23:59.238Z,1125.00
2018-10-09T11:24:59.184Z,1074.38
2018-10-09T11:25:59.161Z,1023.75
2018-10-09T11:26:59.139Z,1006.88
2018-10-09T11:27:59.120Z,939.38
2018-10-09T11:28:59.100Z,877.50
2018-10-09T11:29:59.080Z,810.00
2018-10-09T11:30:59.059Z,781.88
2018-10-09T11:31:59.040Z,742.50
2018-10-09T11:32:59.024Z,725.63
2018-10-09T11:33:59.000Z,708.75
2018-10-09T11:34:58.981Z,691.88
2018-10-09T11:35:58.959Z,680.63
2018-10-09T11:36:58.938Z,680.63
2018-10-09T11:37:58.920Z,669.38
2018-10-09T11:38:58.897Z,669.38
2018-10-09T11:39:58.877Z,663.75
2018-10-09T11:40:58.904Z,675.00
2018-10-09T11:41:58.836Z,680.63
2018-10-09T11:42:58.815Z,686.25
2018-10-09T11:43:58.794Z,697.50
2018-10-09T11:44:58.773Z,703.13
2018-10-09T11:45:58.752Z,708.75
2018-10-09T11:46:58.732Z,725.63
2018-10-09T11:47:58.710Z,753.75
2018-10-09T11:48:58.689Z,798.75
2018-10-09T11:49:58.668Z,849.38
2018-10-09T11:50:58.647Z,916.88
2018-10-09T11:51:58.626Z,967.50
2018-10-09T11:52:58.608Z,1029.38
2018-10-09T11:53:58.589Z,1063.13
2018-10-09T11:54:58.564Z,1119.38
2018-10-09T11:55:58.542Z,1130.63
2018-10-09T11:56:58.524Z,1158.75
2018-10-09T11:57:58.502Z,1170.00
2018-10-09T11:58:58.496Z,1271.25
2018-10-09T11:59:58.459Z,1276.88
2018-10-09T12:00:58.440Z,1355.63
2018-10-09T12:01:58.418Z,1468.13
2018-10-09T12:02:58.516Z,1518.75
2018-10-09T12:03:58.378Z,1417.50
2018-10-09T12:04:58.361Z,1513.13
2018-10-09T12:05:58.344Z,1530.00
2018-10-09T12:06:58.316Z,1378.13
2018-10-09T12:07:58.296Z,1344.38
2018-10-09T12:08:58.276Z,1411.88
2018-10-09T12:09:58.257Z,1226.25
2018-10-09T12:10:58.236Z,1451.25
2018-10-09T12:11:58.217Z,1068.75
2018-10-09T12:12:58.196Z,1406.25
2018-10-09T12:13:58.177Z,1113.75
2018-10-09T12:14:58.157Z,1175.63
2018-10-09T12:15:58.246Z,1361.25
2018-10-09T12:16:58.117Z,1198.13
2018-10-09T12:17:58.099Z,1220.63
2018-10-09T12:18:58.079Z,1434.38
2018-10-09T12:19:58.066Z,1490.63
2018-10-09T12:20:58.043Z,1434.38
2018-10-09T12:21:58.020Z,1366.88
2018-10-09T12:22:58.001Z,1344.38
2018-10-09T12:23:57.986Z,1327.50
2018-10-09T12:24:57.962Z,1310.63
2018-10-09T12:25:57.943Z,1305.00
2018-10-09T12:26:57.926Z,1276.88
2018-10-09T12:27:57.902Z,1355.63
2018-10-09T12:28:57.884Z,1350.00
2018-10-09T12:29:57.865Z,1366.88
2018-10-09T12:30:57.844Z,1355.63
2018-10-09T12:31:57.825Z,1383.75
2018-10-09T12:32:57.816Z,1338.75
2018-10-09T12:33:57.788Z,1333.13
2018-10-09T12:34:57.769Z,1366.88
2018-10-09T12:35:57.749Z,1389.38
2018-10-09T12:36:57.729Z,1383.75
2018-10-09T12:37:57.710Z,1372.50
2018-10-09T12:38:57.692Z,1383.75
2018-10-09T12:39:57.672Z,1366.88
2018-10-09T12:40:57.653Z,1372.50
2018-10-09T12:41:57.634Z,1372.50